createdAt,value
2022-10-18T00:00:08.793Z,10.20
2022-10-18T00:02:58.096Z,8.55
2022-10-18T00:05:24.874Z,11.23
2022-10-18T00:07:51.837Z,12.45
2022-10-18T00:10:18.733Z,8.25
2022-10-18T00:15:13.403Z,13.02
2022-10-18T00:17:40.413Z,7.70
2022-10-18T00:20:08.427Z,8.68
2022-10-18T00:22:37.994Z,9.82
2022-10-18T00:25:06.326Z,9.52
2022-10-18T00:27:34.273Z,9.10
2022-10-18T00:30:01.086Z,9.13
2022-10-18T00:32:28.409Z,14.57
2022-10-18T00:34:55.409Z,11.52
2022-10-18T00:37:22.435Z,17.60
2022-10-18T00:39:49.259Z,11.52
2022-10-18T00:42:18.267Z,14.10
2022-10-18T00:44:45.038Z,8.68
2022-10-18T00:47:14.571Z,7.57
2022-10-18T00:49:46.253Z,9.75
2022-10-18T00:52:17.948Z,9.68
2022-10-18T00:54:47.172Z,9.27
2022-10-18T00:57:14.538Z,9.07
2022-10-18T00:59:42.993Z,8.20
2022-10-18T01:02:10.654Z,7.47
2022-10-18T01:04:37.590Z,11.90
2022-10-18T01:07:25.950Z,6.63
2022-10-18T01:10:14.676Z,10.32
2022-10-18T01:13:05.993Z,8.88
2022-10-18T01:16:14.234Z,13.23
2022-10-18T01:18:41.169Z,9.10
2022-10-18T01:21:10.892Z,11.53
2022-10-18T01:24:15.562Z,12.52
2022-10-18T01:26:53.897Z,13.77
2022-10-18T01:29:48.246Z,16.42
2022-10-18T01:32:28.731Z,15.98
2022-10-18T01:35:03.232Z,11.43
2022-10-18T01:37:31.697Z,12.85
2022-10-18T01:40:00.253Z,10.88
2022-10-18T01:42:27.936Z,7.93
2022-10-18T01:44:55.278Z,5.97
2022-10-18T01:47:23.329Z,16.00
2022-10-18T01:49:50.281Z,10.52
2022-10-18T01:52:17.273Z,12.88
2022-10-18T01:54:51.782Z,13.65
2022-10-18T01:57:25.607Z,12.48
2022-10-18T02:00:22.243Z,11.87
2022-10-18T02:03:14.978Z,9.88
2022-10-18T02:05:52.697Z,10.52
2022-10-18T02:08:23.714Z,6.65
2022-10-18T02:10:55.973Z,9.88
2022-10-18T02:13:27.223Z,8.27
2022-10-18T02:15:59.875Z,7.85
2022-10-18T02:18:37.070Z,5.85
2022-10-18T02:21:06.992Z,7.18
2022-10-18T02:23:34.687Z,8.05
2022-10-18T02:26:02.149Z,7.87
2022-10-18T02:28:29.552Z,9.07
2022-10-18T02:31:27.258Z,8.77
2022-10-18T02:33:58.643Z,8.82
2022-10-18T02:36:31.919Z,9.63
2022-10-18T02:39:04.284Z,10.00
2022-10-18T02:41:32.251Z,13.52
2022-10-18T02:43:59.550Z,7.97
2022-10-18T02:48:54.321Z,12.88
2022-10-18T02:51:21.474Z,11.20
2022-10-18T02:53:48.292Z,13.25
2022-10-18T02:56:15.203Z,11.35
2022-10-18T02:58:42.399Z,16.70
2022-10-18T03:01:09.438Z,16.63
2022-10-18T03:03:36.286Z,11.77
2022-10-18T03:06:03.350Z,13.20
2022-10-18T03:08:30.241Z,15.65
2022-10-18T03:10:57.269Z,13.85
2022-10-18T03:13:24.132Z,12.65
2022-10-18T03:15:51.166Z,10.40
2022-10-18T03:18:17.923Z,11.10
2022-10-18T03:20:44.885Z,10.68
2022-10-18T03:23:11.642Z,7.43
2022-10-18T03:25:40.545Z,10.45
2022-10-18T03:28:09.733Z,10.13
2022-10-18T03:30:36.788Z,11.95
2022-10-18T03:33:03.674Z,10.98
2022-10-18T03:35:30.637Z,10.40
2022-10-18T03:37:57.422Z,11.45
2022-10-18T03:40:24.408Z,10.93
2022-10-18T03:42:51.193Z,12.73
2022-10-18T03:45:18.144Z,14.35
2022-10-18T03:47:44.970Z,12.52
2022-10-18T03:50:12.078Z,10.52
2022-10-18T03:52:38.895Z,8.93
2022-10-18T03:55:06.468Z,9.65
2022-10-18T03:57:33.508Z,8.57
2022-10-18T04:00:00.421Z,14.38
2022-10-18T04:02:27.177Z,9.65
2022-10-18T04:04:54.119Z,10.30
2022-10-18T04:07:20.856Z,7.38
2022-10-18T04:09:47.776Z,9.25
2022-10-18T04:12:14.489Z,7.20
2022-10-18T04:14:41.462Z,14.55
2022-10-18T04:17:08.518Z,13.93
2022-10-18T04:19:35.584Z,9.77
2022-10-18T04:22:02.417Z,11.02
2022-10-18T04:24:29.426Z,9.20
2022-10-18T04:26:56.213Z,9.10
2022-10-18T04:29:23.175Z,9.27
2022-10-18T04:31:50.030Z,8.90
2022-10-18T04:34:17.234Z,7.07
2022-10-18T04:36:44.152Z,8.27
2022-10-18T04:39:11.232Z,7.68
2022-10-18T04:41:38.096Z,6.50
2022-10-18T04:44:05.445Z,7.78
2022-10-18T04:46:32.276Z,7.53
2022-10-18T04:49:01.209Z,8.52
2022-10-18T04:51:31.233Z,5.88
2022-10-18T04:53:58.452Z,7.37
2022-10-18T04:56:25.315Z,7.25
2022-10-18T04:58:52.306Z,7.95
2022-10-18T05:01:19.219Z,10.20
2022-10-18T05:03:46.615Z,9.32
2022-10-18T05:06:13.657Z,8.10
2022-10-18T05:08:40.667Z,8.48
2022-10-18T05:11:07.450Z,11.70
2022-10-18T05:13:34.485Z,10.32
2022-10-18T05:16:02.527Z,10.63
2022-10-18T05:18:29.707Z,9.13
2022-10-18T05:20:56.613Z,14.07
2022-10-18T05:23:23.827Z,9.40
2022-10-18T05:25:50.685Z,8.50
2022-10-18T05:31:07.373Z,9.60
2022-10-18T05:33:34.861Z,12.40
2022-10-18T05:36:01.751Z,17.70
2022-10-18T05:38:31.099Z,13.00
2022-10-18T05:40:58.854Z,12.40
2022-10-18T05:43:29.040Z,12.37
2022-10-18T05:45:55.865Z,14.15
2022-10-18T05:48:23.484Z,15.98
2022-10-18T05:50:50.220Z,17.75
2022-10-18T05:53:36.695Z,15.25
2022-10-18T05:56:04.337Z,12.63
2022-10-18T05:58:31.559Z,15.55
2022-10-18T06:01:00.838Z,11.70
2022-10-18T06:03:28.477Z,10.70
2022-10-18T06:06:07.398Z,12.18
2022-10-18T06:08:35.564Z,12.37
2022-10-18T06:11:17.438Z,11.32
2022-10-18T06:13:46.780Z,13.07
2022-10-18T06:16:15.314Z,11.57
2022-10-18T06:18:42.978Z,11.15
2022-10-18T06:21:10.653Z,11.77
2022-10-18T06:23:37.623Z,10.82
2022-10-18T06:26:07.221Z,10.13
2022-10-18T06:28:36.154Z,18.40
2022-10-18T06:31:04.370Z,11.10
2022-10-18T06:33:32.196Z,10.80
2022-10-18T06:36:00.959Z,11.82
2022-10-18T06:38:28.926Z,11.80
2022-10-18T06:40:56.607Z,12.48
2022-10-18T06:43:24.159Z,14.32
2022-10-18T06:45:51.550Z,11.33
2022-10-18T06:50:54.729Z,14.98
2022-10-18T06:53:21.682Z,10.60
2022-10-18T06:55:48.733Z,14.07
2022-10-18T06:58:15.934Z,14.07
2022-10-18T07:00:42.858Z,29.25
2022-10-18T07:03:09.873Z,30.33
2022-10-18T07:05:37.001Z,25.95
2022-10-18T07:08:04.265Z,28.38
2022-10-18T07:10:31.085Z,86.80
2022-10-18T07:13:13.614Z,29.83
2022-10-18T07:15:44.643Z,28.80
2022-10-18T07:18:11.808Z,28.08
2022-10-18T07:20:38.612Z,38.28
2022-10-18T07:23:09.608Z,72.47
2022-10-18T07:25:36.397Z,58.97
2022-10-18T07:28:04.038Z,42.17
2022-10-18T07:30:30.728Z,32.63
2022-10-18T07:32:57.700Z,58.33
2022-10-18T07:35:24.428Z,69.23
2022-10-18T07:37:51.426Z,78.00
2022-10-18T07:40:18.387Z,43.53
2022-10-18T07:42:45.372Z,27.35
2022-10-18T07:45:13.656Z,32.47
2022-10-18T07:47:41.141Z,34.63
2022-10-18T07:50:08.729Z,29.92
2022-10-18T07:52:35.677Z,38.70
2022-10-18T07:55:02.521Z,24.30
2022-10-18T07:57:29.702Z,31.17
2022-10-18T07:59:57.166Z,34.73
2022-10-18T08:02:24.295Z,39.75
2022-10-18T08:04:51.063Z,39.05
2022-10-18T08:07:18.015Z,33.88
2022-10-18T08:09:44.869Z,42.58
2022-10-18T08:12:11.884Z,66.93
2022-10-18T08:14:38.587Z,43.58
2022-10-18T08:17:05.811Z,56.13
2022-10-18T08:19:32.771Z,67.10
2022-10-18T08:21:59.672Z,67.63
2022-10-18T08:24:26.878Z,71.57
2022-10-18T08:26:53.838Z,83.97
2022-10-18T08:29:24.179Z,72.82
2022-10-18T08:31:52.788Z,93.07
2022-10-18T08:34:20.054Z,60.88
2022-10-18T08:36:47.212Z,67.23
2022-10-18T08:39:13.956Z,71.60
2022-10-18T08:41:53.558Z,51.05
2022-10-18T08:44:32.508Z,54.70
2022-10-18T08:47:11.802Z,25.55
2022-10-18T08:49:47.526Z,22.43
2022-10-18T08:52:37.102Z,27.30
2022-10-18T08:55:12.584Z,24.08
2022-10-18T08:57:39.580Z,22.00
2022-10-18T09:00:16.364Z,22.88
2022-10-18T09:03:00.309Z,22.30
2022-10-18T09:05:30.093Z,22.63
2022-10-18T09:08:24.471Z,20.83
2022-10-18T09:13:50.438Z,27.45
2022-10-18T09:16:24.607Z,20.80
2022-10-18T09:19:04.180Z,19.48
2022-10-18T09:21:52.988Z,25.27
2022-10-18T09:24:38.249Z,19.65
2022-10-18T09:27:19.134Z,17.00
2022-10-18T09:30:09.239Z,16.43
2022-10-18T09:32:51.006Z,17.10
2022-10-18T09:35:49.207Z,17.10
2022-10-18T09:38:19.441Z,17.23
2022-10-18T09:41:16.102Z,17.85
2022-10-18T09:43:48.694Z,15.50
2022-10-18T09:46:18.866Z,18.10
2022-10-18T09:48:51.713Z,13.98
2022-10-18T09:51:26.508Z,13.20
2022-10-18T09:54:36.303Z,12.00
2022-10-18T09:57:23.792Z,9.23
2022-10-18T09:59:51.268Z,10.23
2022-10-18T10:02:23.494Z,10.07
2022-10-18T10:04:51.533Z,9.10
2022-10-18T10:07:28.609Z,10.88
2022-10-18T10:10:07.239Z,12.93
2022-10-18T10:12:37.619Z,9.20
2022-10-18T10:15:19.083Z,7.57
2022-10-18T10:18:04.335Z,12.50
2022-10-18T10:20:42.430Z,9.10
2022-10-18T10:23:16.470Z,14.70
2022-10-18T10:25:43.495Z,10.77
2022-10-18T10:28:16.476Z,11.82
2022-10-18T10:30:43.535Z,10.25
2022-10-18T10:33:32.543Z,8.68
2022-10-18T10:36:00.785Z,7.57
2022-10-18T10:38:30.265Z,8.30
2022-10-18T10:40:58.398Z,10.13
2022-10-18T10:43:39.249Z,8.18
2022-10-18T10:46:13.046Z,11.57
2022-10-18T10:49:34.602Z,9.93
2022-10-18T10:52:08.128Z,10.20
2022-10-18T10:54:50.290Z,8.77
2022-10-18T10:57:28.284Z,14.70
2022-10-18T10:59:59.920Z,9.90
2022-10-18T11:02:31.183Z,9.93
2022-10-18T11:05:24.671Z,9.45
2022-10-18T11:07:56.176Z,11.90
2022-10-18T11:10:26.611Z,9.70
2022-10-18T11:13:03.874Z,11.55
2022-10-18T11:15:40.368Z,9.30
2022-10-18T11:18:14.659Z,9.93
2022-10-18T11:20:46.075Z,9.27
2022-10-18T11:23:15.998Z,11.82
2022-10-18T11:25:48.976Z,7.65
2022-10-18T11:28:30.417Z,9.43
2022-10-18T11:30:58.878Z,10.10
2022-10-18T11:34:07.727Z,7.82
2022-10-18T11:36:36.832Z,7.95
2022-10-18T11:39:50.104Z,10.65
2022-10-18T11:42:40.012Z,7.83
2022-10-18T11:45:35.022Z,8.80
2022-10-18T11:48:09.884Z,7.18
2022-10-18T11:50:51.822Z,8.60
2022-10-18T11:53:41.589Z,10.45
2022-10-18T11:56:28.381Z,8.43
2022-10-18T11:59:42.778Z,9.68
2022-10-18T12:02:43.045Z,6.15
2022-10-18T12:05:26.169Z,9.20
2022-10-18T12:08:25.443Z,6.25
2022-10-18T12:11:06.376Z,7.73
2022-10-18T12:13:39.463Z,12.02
2022-10-18T12:16:08.679Z,9.15
2022-10-18T12:18:41.591Z,10.55
2022-10-18T12:21:08.572Z,9.35
2022-10-18T12:23:45.363Z,11.17
2022-10-18T12:26:12.687Z,8.45
2022-10-18T12:28:58.402Z,10.80
2022-10-18T12:31:36.897Z,10.82
2022-10-18T12:34:28.691Z,11.50
2022-10-18T12:37:05.164Z,9.20
2022-10-18T12:40:05.362Z,8.10
2022-10-18T12:42:40.613Z,8.77
2022-10-18T12:45:35.411Z,12.98
2022-10-18T12:48:06.944Z,10.38
2022-10-18T12:50:37.228Z,7.47
2022-10-18T12:53:07.640Z,9.68
2022-10-18T12:55:40.153Z,11.20
2022-10-18T12:58:30.356Z,8.82
2022-10-18T13:01:02.729Z,8.10
2022-10-18T13:03:39.637Z,7.00
2022-10-18T13:06:07.075Z,7.32
2022-10-18T13:08:39.641Z,9.05
2022-10-18T13:11:09.404Z,8.55
2022-10-18T13:14:08.193Z,7.28
2022-10-18T13:16:56.391Z,7.30
2022-10-18T13:19:32.608Z,7.32
2022-10-18T13:22:08.017Z,10.07
2022-10-18T13:24:44.845Z,7.85
2022-10-18T13:27:47.390Z,9.13
2022-10-18T13:30:39.215Z,9.90
2022-10-18T13:33:38.606Z,11.27
2022-10-18T13:36:24.932Z,11.52
2022-10-18T13:38:57.808Z,12.98
2022-10-18T13:41:32.734Z,9.35
2022-10-18T13:44:37.899Z,9.47
2022-10-18T13:47:04.877Z,11.52
2022-10-18T13:49:43.849Z,9.88
2022-10-18T13:52:32.490Z,9.77
2022-10-18T13:55:43.101Z,10.30
2022-10-18T13:58:23.407Z,11.40
2022-10-18T14:01:22.194Z,7.53
2022-10-18T14:04:17.124Z,7.47
2022-10-18T14:06:47.112Z,7.07
2022-10-18T14:12:41.716Z,9.33
2022-10-18T14:15:20.874Z,6.13
2022-10-18T14:18:15.063Z,6.00
2022-10-18T14:21:01.327Z,8.57
2022-10-18T14:23:37.901Z,10.70
2022-10-18T14:26:14.273Z,9.50
2022-10-18T14:28:59.011Z,6.68
2022-10-18T14:31:27.677Z,9.50
2022-10-18T14:33:58.303Z,8.70
2022-10-18T14:36:29.590Z,5.63
2022-10-18T14:39:03.855Z,7.57
2022-10-18T14:41:47.245Z,8.00
2022-10-18T14:44:13.978Z,6.43
2022-10-18T14:46:48.555Z,7.20
2022-10-18T14:49:16.125Z,5.68
2022-10-18T14:51:45.362Z,11.43
2022-10-18T14:54:18.809Z,6.57
2022-10-18T14:56:46.230Z,7.35
2022-10-18T14:59:18.132Z,7.10
2022-10-18T15:01:54.359Z,8.93
2022-10-18T15:04:26.260Z,5.83
2022-10-18T15:06:55.798Z,5.07
2022-10-18T15:09:24.097Z,7.30
2022-10-18T15:11:51.796Z,6.00
2022-10-18T15:14:20.321Z,5.63
2022-10-18T15:16:50.511Z,7.23
2022-10-18T15:19:17.171Z,7.80
2022-10-18T15:22:30.707Z,7.80
2022-10-18T15:25:11.042Z,6.60
2022-10-18T15:30:19.465Z,5.00
2022-10-18T15:32:58.745Z,6.22
2022-10-18T15:35:28.895Z,6.18
2022-10-18T15:37:58.372Z,7.05
2022-10-18T15:40:28.030Z,4.70
2022-10-18T15:43:00.635Z,4.83
2022-10-18T15:45:33.949Z,8.40
2022-10-18T15:48:06.996Z,4.93
2022-10-18T15:50:50.105Z,4.78
2022-10-18T15:53:49.339Z,6.10
2022-10-18T15:56:34.895Z,5.40
2022-10-18T15:59:12.620Z,6.53
2022-10-18T16:01:44.317Z,5.22
2022-10-18T16:04:32.788Z,6.57
2022-10-18T16:07:00.357Z,6.32
2022-10-18T16:09:28.808Z,4.13
2022-10-18T16:11:57.343Z,5.10
2022-10-18T16:14:25.798Z,4.82
2022-10-18T16:16:55.507Z,6.13
2022-10-18T16:19:23.311Z,5.32
2022-10-18T16:21:51.812Z,8.13
2022-10-18T16:24:19.031Z,6.43
2022-10-18T16:26:46.664Z,5.07
2022-10-18T16:29:15.238Z,5.68
2022-10-18T16:31:42.485Z,7.25
2022-10-18T16:34:11.991Z,7.20
2022-10-18T16:36:38.674Z,5.63
2022-10-18T16:39:10.287Z,6.75
2022-10-18T16:41:36.920Z,7.53
2022-10-18T16:44:03.806Z,6.55
2022-10-18T16:46:33.079Z,6.33
2022-10-18T16:49:00.667Z,5.78
2022-10-18T16:51:27.472Z,5.97
2022-10-18T16:53:54.733Z,8.75
2022-10-18T16:56:27.432Z,7.13
2022-10-18T16:58:54.920Z,7.40
2022-10-18T17:01:23.559Z,6.75
2022-10-18T17:03:53.880Z,5.82
2022-10-18T17:06:32.255Z,7.07
2022-10-18T17:08:59.725Z,10.27
2022-10-18T17:11:29.606Z,9.20
2022-10-18T17:13:56.402Z,7.95
2022-10-18T17:19:06.410Z,8.13
2022-10-18T17:21:33.569Z,8.60
2022-10-18T17:24:04.350Z,9.20
2022-10-18T17:26:31.562Z,10.95
2022-10-18T17:29:05.320Z,9.15
2022-10-18T17:31:33.057Z,10.25
2022-10-18T17:34:01.875Z,10.75
2022-10-18T17:36:32.861Z,9.13
2022-10-18T17:39:00.567Z,8.98
2022-10-18T17:41:27.640Z,7.13
2022-10-18T17:43:54.884Z,8.23
2022-10-18T17:46:23.545Z,9.10
2022-10-18T17:48:50.484Z,8.50
2022-10-18T17:51:17.632Z,9.82
2022-10-18T17:53:44.873Z,10.52
2022-10-18T17:56:12.401Z,14.38
2022-10-18T17:58:39.695Z,20.85
2022-10-18T18:01:10.780Z,20.80
2022-10-18T18:03:38.164Z,21.30
2022-10-18T18:06:15.858Z,21.15
2022-10-18T18:08:42.912Z,17.08
2022-10-18T18:11:09.935Z,16.48
2022-10-18T18:13:37.696Z,23.23
2022-10-18T18:16:19.713Z,16.73
2022-10-18T18:18:48.870Z,14.88
2022-10-18T18:21:16.444Z,20.45
2022-10-18T18:23:43.853Z,17.15
2022-10-18T18:26:10.837Z,15.03
2022-10-18T18:28:37.993Z,13.63
2022-10-18T18:31:09.466Z,14.80
2022-10-18T18:33:37.660Z,11.82
2022-10-18T18:36:05.212Z,13.40
2022-10-18T18:38:33.757Z,14.43
2022-10-18T18:41:16.736Z,14.82
2022-10-18T18:43:46.602Z,12.98
2022-10-18T18:46:13.302Z,12.43
2022-10-18T18:48:40.916Z,10.30
2022-10-18T18:51:11.782Z,9.18
2022-10-18T18:53:44.143Z,22.40
2022-10-18T18:56:14.188Z,17.98
2022-10-18T18:58:45.152Z,19.80
2022-10-18T19:01:17.140Z,21.92
2022-10-18T19:03:46.169Z,17.67
2022-10-18T19:06:19.297Z,14.17
2022-10-18T19:08:47.024Z,21.42
2022-10-18T19:11:19.146Z,10.40
2022-10-18T19:13:47.505Z,18.30
2022-10-18T19:16:19.509Z,10.13
2022-10-18T19:18:51.352Z,14.43
2022-10-18T19:21:18.387Z,11.50
2022-10-18T19:23:45.495Z,13.65
2022-10-18T19:26:19.263Z,9.77
2022-10-18T19:28:46.126Z,11.38
2022-10-18T19:31:12.786Z,11.03
2022-10-18T19:33:48.464Z,14.10
2022-10-18T19:36:23.083Z,9.52
2022-10-18T19:38:51.386Z,11.52
2022-10-18T19:41:18.456Z,13.43
2022-10-18T19:43:46.163Z,16.40
2022-10-18T19:46:12.961Z,21.35
2022-10-18T19:48:40.038Z,12.20
2022-10-18T19:51:09.372Z,15.98
2022-10-18T19:53:36.777Z,18.33
2022-10-18T19:56:05.344Z,15.57
2022-10-18T19:58:33.087Z,13.30
2022-10-18T20:01:00.459Z,13.75
2022-10-18T20:03:31.483Z,14.05
2022-10-18T20:06:01.887Z,15.98
2022-10-18T20:08:34.237Z,16.17
2022-10-18T20:11:06.758Z,12.80
2022-10-18T20:13:34.624Z,13.75
2022-10-18T20:16:02.327Z,11.13
2022-10-18T20:18:29.202Z,12.35
2022-10-18T20:20:55.884Z,16.10
2022-10-18T20:23:23.160Z,15.15
2022-10-18T20:26:01.463Z,14.32
2022-10-18T20:28:29.167Z,15.57
2022-10-18T20:31:10.596Z,13.52
2022-10-18T20:33:38.122Z,14.07
2022-10-18T20:36:10.505Z,9.43
2022-10-18T20:38:40.112Z,10.20
2022-10-18T20:41:28.744Z,12.82
2022-10-18T20:43:57.832Z,10.05
2022-10-18T20:46:25.310Z,10.33
2022-10-18T20:48:53.435Z,10.38
2022-10-18T20:51:21.174Z,8.52
2022-10-18T20:53:48.509Z,8.93
2022-10-18T20:56:20.086Z,8.77
2022-10-18T20:58:49.234Z,14.70
2022-10-18T21:01:24.340Z,13.52
2022-10-18T21:03:53.527Z,11.60
2022-10-18T21:06:25.083Z,12.70
2022-10-18T21:08:57.185Z,9.38
2022-10-18T21:11:24.707Z,6.30
2022-10-18T21:13:53.604Z,8.88
2022-10-18T21:16:20.831Z,7.95
2022-10-18T21:18:48.298Z,11.77
2022-10-18T21:21:18.307Z,7.60
2022-10-18T21:23:45.728Z,8.50
2022-10-18T21:26:18.146Z,8.27
2022-10-18T21:29:03.318Z,9.15
2022-10-18T21:31:32.640Z,7.38
2022-10-18T21:34:02.888Z,12.40
2022-10-18T21:36:35.964Z,14.17
2022-10-18T21:39:08.368Z,14.63
2022-10-18T21:41:36.318Z,13.95
2022-10-18T21:44:08.234Z,12.43
2022-10-18T21:46:37.494Z,12.13
2022-10-18T21:49:04.342Z,11.63
2022-10-18T21:51:30.972Z,12.15
2022-10-18T21:53:58.547Z,10.82
2022-10-18T21:56:28.119Z,9.00
2022-10-18T21:58:55.830Z,7.82
2022-10-18T22:01:28.412Z,10.10
2022-10-18T22:03:56.634Z,11.65
2022-10-18T22:06:23.824Z,10.73
2022-10-18T22:08:55.655Z,17.92
2022-10-18T22:11:26.240Z,12.05
2022-10-18T22:13:53.465Z,17.03
2022-10-18T22:16:20.421Z,14.05
2022-10-18T22:18:48.362Z,13.80
2022-10-18T22:21:17.053Z,19.90
2022-10-18T22:23:46.157Z,17.15
2022-10-18T22:26:15.789Z,17.57
2022-10-18T22:28:44.996Z,12.65
2022-10-18T22:31:17.391Z,20.58
2022-10-18T22:33:44.889Z,17.33
2022-10-18T22:36:12.583Z,19.92
2022-10-18T22:38:40.032Z,21.00
2022-10-18T22:41:11.544Z,21.48
2022-10-18T22:43:38.549Z,21.70
2022-10-18T22:46:08.911Z,23.45
2022-10-18T22:48:36.309Z,23.67
2022-10-18T22:51:04.426Z,20.60
2022-10-18T22:53:32.140Z,23.20
2022-10-18T22:55:59.365Z,23.08
2022-10-18T22:58:26.357Z,23.85
2022-10-18T23:01:00.635Z,20.67
2022-10-18T23:03:28.092Z,17.13
2022-10-18T23:05:54.836Z,15.35
2022-10-18T23:08:21.801Z,14.73
2022-10-18T23:10:53.192Z,25.17
2022-10-18T23:13:20.120Z,25.05
2022-10-18T23:15:46.761Z,24.27
2022-10-18T23:18:13.622Z,27.65
2022-10-18T23:20:40.290Z,20.20
2022-10-18T23:23:07.430Z,25.05
2022-10-18T23:25:37.910Z,26.70
2022-10-18T23:28:05.552Z,24.13
2022-10-18T23:30:32.356Z,25.75
2022-10-18T23:32:59.912Z,26.73
2022-10-18T23:35:29.332Z,29.30
2022-10-18T23:37:56.161Z,25.50
2022-10-18T23:40:22.820Z,21.53
2022-10-18T23:42:49.649Z,18.88
2022-10-18T23:45:16.382Z,26.90
2022-10-18T23:47:43.241Z,27.30
2022-10-18T23:50:09.906Z,27.05
2022-10-18T23:52:36.787Z,31.73
2022-10-18T23:55:03.759Z,28.00
2022-10-18T23:57:30.870Z,30.17
2022-10-18T23:59:57.741Z,27.60
